Main page
METAR-TAF:

METAR-TAF

Airports :

Genoa, Italy

Genoa Cristoforo Colombo Airport

latitude: 44-25N, longitude: 008-51E, elevation: 2 m

Current weather observation

The report was made 29 minutes ago, at 23:50 UTC
Wind 6 kt from the North
Temperature 10°C
Humidity 76%
Pressure 1017 hPa
Visibility 10 km or more
no clouds below 1500 m and no cumulonimbus

METAR: LIMJ 192350Z 01006KT CAVOK 10/06 Q1017

Time: 01:19 (00:19 UTC)

Forecast

The report was made 1 hour and 19 minutes ago, at 23:00 UTC
Forecast valid from 20 at 00 UTC to 20 at 24 UTC
Wind 5 kt from variable directions
Visibility 10 km or more
Scattered clouds at a height of 2500 ft

TAF: LIMJ 192300Z 2000/2024 VRB05KT 9999 SCT025

Weather observations and forecasts of more than 4000 airports (METAR and TAF reports).

The available stations are represented by yellow and red dots on the map.

Hover mouse over dot to see the name of the station.

Then click to see weather observations and forecasts.

To change the map : click on the green buttons with a black cross to zoom in, on the green button with a dash to zoom out, or on the green arrows for adjacent maps.


METAR-TAF: